PWSweather.com
Personal Weather Stations
Station Observations
KTXNEWBR92
New Braunfels, TX

New Braunfels, TX

Lat: 29.722, Lon: -98.17

Elevation: 850

Station Type:

High Low Average
Temperature 61.9°F16.6°C 51.3°F10.7°C 57.6°F14.2°C
Dew Point 60.4°F15.8°C 49.3°F9.6°C 56.1°F13.4°C
Winds 7.2 mph 11.6 kmh Calm Calm 1.0 mph SE1.6 kmh SE
Wind Gusts 9.8 mph15.8 kmh -- 1.0 mph1.6 kmh
Humidity 96% 93% 95%
Pressure 29.88 in1011.9 mb 29.51 in999.3 mb -
Precipitation 0.04 in1.0 mm - -
Hour Temp Dew Point Humidity Winds Wind Gusts Pressure Precip Precip Rate Daily Precip Total
12:04 AM 52.7°F11.5°C 50.5°F10.3°C 92% Calm Calm -- 29.88 in1011.9 mb 0.00 in0.0 mm 0.00 in0.0 mm 0.01 in0.3 mm
12:09 AM 52.5°F11.4°C 50.4°F10.2°C 92% Calm Calm -- 29.88 in1011.9 mb 0.00 in0.0 mm 0.00 in0.0 mm 0.01 in0.3 mm
12:14 AM 52.3°F11.3°C 50.2°F10.1°C 92% Calm Calm -- 29.88 in1011.9 mb 0.00 in0.0 mm 0.00 in0.0 mm 0.01 in0.3 mm
12:19 AM 52.3°F11.3°C 50.2°F10.1°C 92% Calm Calm -- 29.89 in1012.2 mb 0.00 in0.0 mm 0.00 in0.0 mm 0.01 in0.3 mm
12:24 AM 52.2°F11.2°C 50.0°F10.0°C 92% Calm Calm -- 29.88 in1011.9 mb 0.00 in0.0 mm 0.00 in0.0 mm 0.01 in0.3 mm
12:29 AM 52.2°F11.2°C 50.0°F10.0°C 92% Calm Calm -- 29.88 in1011.9 mb 0.00 in0.0 mm 0.00 in0.0 mm 0.01 in0.3 mm
12:34 AM 52.0°F11.1°C 49.8°F9.9°C 92% Calm Calm -- 29.88 in1011.9 mb 0.00 in0.0 mm 0.00 in0.0 mm 0.01 in0.3 mm
12:39 AM 52.0°F11.1°C 50.0°F10.0°C 93% Calm Calm -- 29.88 in1011.9 mb 0.00 in0.0 mm 0.00 in0.0 mm 0.01 in0.3 mm
12:44 AM 51.8°F11.0°C 49.8°F9.9°C 93% Calm Calm -- 29.88 in1011.9 mb 0.00 in0.0 mm 0.00 in0.0 mm 0.01 in0.3 mm
12:49 AM 51.8°F11.0°C 49.8°F9.9°C 93% Calm Calm -- 29.87 in1011.5 mb 0.00 in0.0 mm 0.00 in0.0 mm 0.01 in0.3 mm
12:54 AM 51.8°F11.0°C 49.8°F9.9°C 93% Calm Calm -- 29.88 in1011.9 mb 0.00 in0.0 mm 0.00 in0.0 mm 0.01 in0.3 mm
01:04 AM 52.0°F11.1°C 50.0°F10.0°C 93% 1.8 mph S2.9 kmh S 2.5 mph4.0 kmh 29.88 in1011.9 mb 0.00 in0.0 mm 0.00 in0.0 mm 0.00 in0.0 mm
01:09 AM 52.0°F11.1°C 50.0°F10.0°C 93% Calm Calm -- 29.88 in1011.9 mb 0.00 in0.0 mm 0.00 in0.0 mm 0.00 in0.0 mm
01:14 AM 52.2°F11.2°C 50.2°F10.1°C 93% Calm Calm -- 29.88 in1011.9 mb 0.00 in0.0 mm 0.00 in0.0 mm 0.00 in0.0 mm
01:19 AM 52.2°F11.2°C 50.2°F10.1°C 93% Calm Calm -- 29.88 in1011.9 mb 0.00 in0.0 mm 0.00 in0.0 mm 0.00 in0.0 mm
01:24 AM 52.2°F11.2°C 50.2°F10.1°C 93% Calm Calm -- 29.88 in1011.9 mb 0.00 in0.0 mm 0.00 in0.0 mm 0.00 in0.0 mm
01:29 AM 52.0°F11.1°C 50.0°F10.0°C 93% Calm Calm -- 29.88 in1011.9 mb 0.00 in0.0 mm 0.00 in0.0 mm 0.00 in0.0 mm
01:34 AM 51.8°F11.0°C 49.8°F9.9°C 93% Calm Calm -- 29.87 in1011.5 mb 0.00 in0.0 mm 0.00 in0.0 mm 0.00 in0.0 mm
01:39 AM 51.8°F11.0°C 49.8°F9.9°C 93% Calm Calm -- 29.87 in1011.5 mb 0.00 in0.0 mm 0.00 in0.0 mm 0.00 in0.0 mm
01:44 AM 51.6°F10.9°C 49.6°F9.8°C 93% Calm Calm -- 29.87 in1011.5 mb 0.00 in0.0 mm 0.00 in0.0 mm 0.00 in0.0 mm
01:49 AM 51.4°F10.8°C 49.5°F9.7°C 93% Calm Calm -- 29.87 in1011.5 mb 0.00 in0.0 mm 0.00 in0.0 mm 0.00 in0.0 mm
01:54 AM 51.4°F10.8°C 49.5°F9.7°C 93% Calm Calm -- 29.86 in1011.2 mb 0.00 in0.0 mm 0.00 in0.0 mm 0.00 in0.0 mm
01:59 AM 51.3°F10.7°C 49.3°F9.6°C 93% Calm Calm -- 29.86 in1011.2 mb 0.00 in0.0 mm 0.00 in0.0 mm 0.00 in0.0 mm
02:04 AM 51.3°F10.7°C 49.6°F9.8°C 94% Calm Calm -- 29.86 in1011.2 mb 0.00 in0.0 mm 0.00 in0.0 mm 0.00 in0.0 mm
02:09 AM 51.4°F10.8°C 49.8°F9.9°C 94% Calm Calm -- 29.85 in1010.8 mb 0.00 in0.0 mm 0.00 in0.0 mm 0.00 in0.0 mm
02:14 AM 51.4°F10.8°C 49.8°F9.9°C 94% 1.8 mph SW2.9 kmh SW 2.5 mph4.0 kmh 29.85 in1010.8 mb 0.00 in0.0 mm 0.00 in0.0 mm 0.00 in0.0 mm
02:19 AM 51.6°F10.9°C 50.0°F10.0°C 94% 1.3 mph N2.1 kmh N 2.5 mph4.0 kmh 29.86 in1011.2 mb 0.00 in0.0 mm 0.00 in0.0 mm 0.00 in0.0 mm
02:24 AM 51.8°F11.0°C 50.2°F10.1°C 94% Calm Calm -- 29.86 in1011.2 mb 0.00 in0.0 mm 0.00 in0.0 mm 0.00 in0.0 mm
02:29 AM 52.2°F11.2°C 50.5°F10.3°C 94% 0.9 mph SE1.4 kmh SE 2.5 mph4.0 kmh 29.85 in1010.8 mb 0.00 in0.0 mm 0.00 in0.0 mm 0.00 in0.0 mm
02:34 AM 52.3°F11.3°C 50.7°F10.4°C 94% 2.5 mph SSW4.0 kmh SSW 2.5 mph4.0 kmh 29.85 in1010.8 mb 0.00 in0.0 mm 0.00 in0.0 mm 0.00 in0.0 mm
02:39 AM 52.5°F11.4°C 50.9°F10.5°C 94% 2.5 mph SW4.0 kmh SW 4.9 mph7.9 kmh 29.85 in1010.8 mb 0.00 in0.0 mm 0.00 in0.0 mm 0.00 in0.0 mm
02:44 AM 52.5°F11.4°C 50.9°F10.5°C 94% 1.1 mph WSW1.8 kmh WSW 2.5 mph4.0 kmh 29.85 in1010.8 mb 0.00 in0.0 mm 0.00 in0.0 mm 0.00 in0.0 mm
02:49 AM 52.5°F11.4°C 50.9°F10.5°C 94% 1.8 mph SSW2.9 kmh SSW 2.5 mph4.0 kmh 29.85 in1010.8 mb 0.00 in0.0 mm 0.00 in0.0 mm 0.00 in0.0 mm
02:54 AM 52.7°F11.5°C 51.1°F10.6°C 94% Calm Calm -- 29.84 in1010.5 mb 0.00 in0.0 mm 0.00 in0.0 mm 0.00 in0.0 mm
02:59 AM 52.7°F11.5°C 51.1°F10.6°C 94% Calm Calm -- 29.84 in1010.5 mb 0.00 in0.0 mm 0.00 in0.0 mm 0.00 in0.0 mm
03:04 AM 52.7°F11.5°C 51.1°F10.6°C 94% Calm Calm -- 29.84 in1010.5 mb 0.00 in0.0 mm 0.00 in0.0 mm 0.00 in0.0 mm
03:09 AM 52.7°F11.5°C 51.1°F10.6°C 94% Calm Calm -- 29.84 in1010.5 mb 0.00 in0.0 mm 0.00 in0.0 mm 0.00 in0.0 mm
03:14 AM 52.7°F11.5°C 51.1°F10.6°C 94% Calm Calm -- 29.84 in1010.5 mb 0.00 in0.0 mm 0.00 in0.0 mm 0.00 in0.0 mm
03:19 AM 52.7°F11.5°C 51.1°F10.6°C 94% Calm Calm -- 29.83 in1010.2 mb 0.00 in0.0 mm 0.00 in0.0 mm 0.00 in0.0 mm
03:24 AM 52.7°F11.5°C 51.1°F10.6°C 94% 0.2 mph S0.3 kmh S 2.5 mph4.0 kmh 29.83 in1010.2 mb 0.00 in0.0 mm 0.00 in0.0 mm 0.00 in0.0 mm
03:29 AM 52.7°F11.5°C 51.1°F10.6°C 94% 1.1 mph ESE1.8 kmh ESE 2.5 mph4.0 kmh 29.83 in1010.2 mb 0.00 in0.0 mm 0.00 in0.0 mm 0.00 in0.0 mm
03:34 AM 52.7°F11.5°C 51.1°F10.6°C 94% 0.9 mph N1.4 kmh N 2.5 mph4.0 kmh 29.83 in1010.2 mb 0.00 in0.0 mm 0.00 in0.0 mm 0.00 in0.0 mm
03:39 AM 52.9°F11.6°C 51.3°F10.7°C 94% Calm Calm -- 29.83 in1010.2 mb 0.00 in0.0 mm 0.00 in0.0 mm 0.00 in0.0 mm
03:44 AM 52.9°F11.6°C 51.3°F10.7°C 94% Calm Calm -- 29.83 in1010.2 mb 0.00 in0.0 mm 0.00 in0.0 mm 0.00 in0.0 mm
03:49 AM 52.9°F11.6°C 51.3°F10.7°C 94% Calm Calm -- 29.83 in1010.2 mb 0.00 in0.0 mm 0.00 in0.0 mm 0.00 in0.0 mm
03:54 AM 52.9°F11.6°C 51.3°F10.7°C 94% Calm Calm -- 29.83 in1010.2 mb 0.00 in0.0 mm 0.00 in0.0 mm 0.00 in0.0 mm
03:59 AM 52.9°F11.6°C 51.3°F10.7°C 94% Calm Calm -- 29.82 in1009.8 mb 0.00 in0.0 mm 0.00 in0.0 mm 0.00 in0.0 mm
04:04 AM 52.9°F11.6°C 51.3°F10.7°C 94% Calm Calm -- 29.83 in1010.2 mb 0.00 in0.0 mm 0.00 in0.0 mm 0.00 in0.0 mm
04:09 AM 52.9°F11.6°C 51.3°F10.7°C 94% 1.8 mph S2.9 kmh S 2.5 mph4.0 kmh 29.82 in1009.8 mb 0.00 in0.0 mm 0.00 in0.0 mm 0.00 in0.0 mm
04:14 AM 52.9°F11.6°C 51.3°F10.7°C 94% 0.2 mph E0.3 kmh E 2.5 mph4.0 kmh 29.82 in1009.8 mb 0.00 in0.0 mm 0.00 in0.0 mm 0.00 in0.0 mm
04:19 AM 53.1°F11.7°C 51.4°F10.8°C 94% 0.4 mph ESE0.6 kmh ESE 2.5 mph4.0 kmh 29.81 in1009.5 mb 0.00 in0.0 mm 0.00 in0.0 mm 0.00 in0.0 mm
04:24 AM 53.1°F11.7°C 51.4°F10.8°C 94% Calm Calm -- 29.82 in1009.8 mb 0.00 in0.0 mm 0.00 in0.0 mm 0.00 in0.0 mm
04:29 AM 53.1°F11.7°C 51.4°F10.8°C 94% Calm Calm -- 29.81 in1009.5 mb 0.00 in0.0 mm 0.00 in0.0 mm 0.00 in0.0 mm
04:34 AM 53.1°F11.7°C 51.4°F10.8°C 94% Calm Calm -- 29.81 in1009.5 mb 0.00 in0.0 mm 0.00 in0.0 mm 0.00 in0.0 mm
04:39 AM 53.1°F11.7°C 51.4°F10.8°C 94% Calm Calm -- 29.81 in1009.5 mb 0.00 in0.0 mm 0.00 in0.0 mm 0.00 in0.0 mm
04:44 AM 53.1°F11.7°C 51.4°F10.8°C 94% 0.4 mph E0.6 kmh E 2.5 mph4.0 kmh 29.80 in1009.1 mb 0.00 in0.0 mm 0.00 in0.0 mm 0.00 in0.0 mm
04:49 AM 53.2°F11.8°C 51.6°F10.9°C 94% 0.2 mph N0.3 kmh N 2.5 mph4.0 kmh 29.81 in1009.5 mb 0.00 in0.0 mm 0.00 in0.0 mm 0.00 in0.0 mm
04:54 AM 53.2°F11.8°C 51.6°F10.9°C 94% Calm Calm -- 29.80 in1009.1 mb 0.00 in0.0 mm 0.00 in0.0 mm 0.00 in0.0 mm
04:59 AM 53.2°F11.8°C 51.6°F10.9°C 94% Calm Calm -- 29.80 in1009.1 mb 0.00 in0.0 mm 0.00 in0.0 mm 0.00 in0.0 mm
05:04 AM 53.2°F11.8°C 51.6°F10.9°C 94% Calm Calm -- 29.80 in1009.1 mb 0.00 in0.0 mm 0.00 in0.0 mm 0.00 in0.0 mm
05:09 AM 53.2°F11.8°C 51.6°F10.9°C 94% Calm Calm -- 29.80 in1009.1 mb 0.00 in0.0 mm 0.00 in0.0 mm 0.00 in0.0 mm
05:14 AM 53.4°F11.9°C 51.8°F11.0°C 94% Calm Calm -- 29.80 in1009.1 mb 0.00 in0.0 mm 0.00 in0.0 mm 0.00 in0.0 mm
05:19 AM 53.4°F11.9°C 51.8°F11.0°C 94% 0.9 mph S1.4 kmh S 2.5 mph4.0 kmh 29.79 in1008.8 mb 0.00 in0.0 mm 0.00 in0.0 mm 0.00 in0.0 mm
05:24 AM 53.4°F11.9°C 51.8°F11.0°C 94% Calm Calm -- 29.79 in1008.8 mb 0.00 in0.0 mm 0.00 in0.0 mm 0.00 in0.0 mm
05:29 AM 53.6°F12.0°C 52.0°F11.1°C 94% Calm Calm -- 29.79 in1008.8 mb 0.00 in0.0 mm 0.00 in0.0 mm 0.00 in0.0 mm
05:34 AM 53.6°F12.0°C 52.0°F11.1°C 94% Calm Calm -- 29.78 in1008.5 mb 0.00 in0.0 mm 0.00 in0.0 mm 0.00 in0.0 mm
05:39 AM 53.6°F12.0°C 52.0°F11.1°C 94% Calm Calm -- 29.78 in1008.5 mb 0.00 in0.0 mm 0.00 in0.0 mm 0.00 in0.0 mm
05:44 AM 53.8°F12.1°C 52.2°F11.2°C 94% Calm Calm -- 29.78 in1008.5 mb 0.00 in0.0 mm 0.00 in0.0 mm 0.00 in0.0 mm
05:49 AM 53.8°F12.1°C 52.2°F11.2°C 94% Calm Calm -- 29.78 in1008.5 mb 0.00 in0.0 mm 0.00 in0.0 mm 0.00 in0.0 mm
05:54 AM 54.0°F12.2°C 52.5°F11.4°C 95% Calm Calm -- 29.77 in1008.1 mb 0.00 in0.0 mm 0.00 in0.0 mm 0.00 in0.0 mm
05:59 AM 54.0°F12.2°C 52.5°F11.4°C 95% Calm Calm -- 29.77 in1008.1 mb 0.00 in0.0 mm 0.00 in0.0 mm 0.00 in0.0 mm
06:04 AM 54.1°F12.3°C 52.5°F11.4°C 94% Calm Calm -- 29.77 in1008.1 mb 0.00 in0.0 mm 0.00 in0.0 mm 0.00 in0.0 mm
06:09 AM 54.1°F12.3°C 52.7°F11.5°C 95% Calm Calm -- 29.76 in1007.8 mb 0.00 in0.0 mm 0.00 in0.0 mm 0.00 in0.0 mm
06:14 AM 54.3°F12.4°C 52.9°F11.6°C 95% 1.3 mph SE2.1 kmh SE 2.5 mph4.0 kmh 29.76 in1007.8 mb 0.00 in0.0 mm 0.00 in0.0 mm 0.00 in0.0 mm
06:19 AM 54.3°F12.4°C 52.9°F11.6°C 95% Calm Calm -- 29.75 in1007.5 mb 0.00 in0.0 mm 0.00 in0.0 mm 0.00 in0.0 mm
06:24 AM 54.5°F12.5°C 53.1°F11.7°C 95% Calm Calm -- 29.75 in1007.5 mb 0.00 in0.0 mm 0.00 in0.0 mm 0.00 in0.0 mm
06:29 AM 54.5°F12.5°C 53.1°F11.7°C 95% Calm Calm -- 29.75 in1007.5 mb 0.00 in0.0 mm 0.00 in0.0 mm 0.00 in0.0 mm
06:34 AM 54.5°F12.5°C 53.1°F11.7°C 95% Calm Calm -- 29.75 in1007.5 mb 0.00 in0.0 mm 0.00 in0.0 mm 0.00 in0.0 mm
06:39 AM 54.7°F12.6°C 53.2°F11.8°C 95% Calm Calm -- 29.75 in1007.5 mb 0.00 in0.0 mm 0.00 in0.0 mm 0.00 in0.0 mm
06:44 AM 54.7°F12.6°C 53.2°F11.8°C 95% 0.2 mph SE0.3 kmh SE 2.5 mph4.0 kmh 29.75 in1007.5 mb 0.00 in0.0 mm 0.00 in0.0 mm 0.00 in0.0 mm
06:49 AM 54.7°F12.6°C 53.2°F11.8°C 95% Calm Calm -- 29.75 in1007.5 mb 0.00 in0.0 mm 0.00 in0.0 mm 0.00 in0.0 mm
06:54 AM 54.7°F12.6°C 53.2°F11.8°C 95% Calm Calm -- 29.75 in1007.5 mb 0.00 in0.0 mm 0.00 in0.0 mm 0.00 in0.0 mm
06:59 AM 54.7°F12.6°C 53.2°F11.8°C 95% Calm Calm -- 29.76 in1007.8 mb 0.00 in0.0 mm 0.00 in0.0 mm 0.00 in0.0 mm
07:04 AM 54.7°F12.6°C 53.2°F11.8°C 95% Calm Calm -- 29.76 in1007.8 mb 0.00 in0.0 mm 0.00 in0.0 mm 0.00 in0.0 mm
07:09 AM 54.7°F12.6°C 53.2°F11.8°C 95% Calm Calm -- 29.75 in1007.5 mb 0.00 in0.0 mm 0.00 in0.0 mm 0.00 in0.0 mm
07:14 AM 54.7°F12.6°C 53.2°F11.8°C 95% Calm Calm -- 29.75 in1007.5 mb 0.00 in0.0 mm 0.00 in0.0 mm 0.00 in0.0 mm
07:19 AM 54.7°F12.6°C 53.2°F11.8°C 95% Calm Calm -- 29.75 in1007.5 mb 0.00 in0.0 mm 0.00 in0.0 mm 0.00 in0.0 mm
07:24 AM 54.7°F12.6°C 53.2°F11.8°C 95% Calm Calm -- 29.75 in1007.5 mb 0.00 in0.0 mm 0.00 in0.0 mm 0.00 in0.0 mm
07:29 AM 54.7°F12.6°C 53.2°F11.8°C 95% Calm Calm -- 29.76 in1007.8 mb 0.00 in0.0 mm 0.00 in0.0 mm 0.00 in0.0 mm
07:34 AM 54.7°F12.6°C 53.2°F11.8°C 95% Calm Calm -- 29.76 in1007.8 mb 0.00 in0.0 mm 0.00 in0.0 mm 0.00 in0.0 mm
07:39 AM 54.7°F12.6°C 53.2°F11.8°C 95% Calm Calm -- 29.77 in1008.1 mb 0.00 in0.0 mm 0.00 in0.0 mm 0.00 in0.0 mm
07:44 AM 54.7°F12.6°C 53.2°F11.8°C 95% Calm Calm -- 29.76 in1007.8 mb 0.00 in0.0 mm 0.00 in0.0 mm 0.00 in0.0 mm
07:49 AM 54.7°F12.6°C 53.2°F11.8°C 95% Calm Calm -- 29.76 in1007.8 mb 0.00 in0.0 mm 0.00 in0.0 mm 0.00 in0.0 mm
07:54 AM 54.7°F12.6°C 53.2°F11.8°C 95% Calm Calm -- 29.76 in1007.8 mb 0.00 in0.0 mm 0.00 in0.0 mm 0.00 in0.0 mm
07:59 AM 54.9°F12.7°C 53.4°F11.9°C 95% Calm Calm -- 29.77 in1008.1 mb 0.00 in0.0 mm 0.00 in0.0 mm 0.00 in0.0 mm
08:04 AM 54.9°F12.7°C 53.4°F11.9°C 95% Calm Calm -- 29.77 in1008.1 mb 0.00 in0.0 mm 0.00 in0.0 mm 0.00 in0.0 mm
08:09 AM 54.9°F12.7°C 53.4°F11.9°C 95% Calm Calm -- 29.77 in1008.1 mb 0.00 in0.0 mm 0.00 in0.0 mm 0.00 in0.0 mm
08:14 AM 54.9°F12.7°C 53.4°F11.9°C 95% Calm Calm -- 29.77 in1008.1 mb 0.00 in0.0 mm 0.00 in0.0 mm 0.00 in0.0 mm
08:19 AM 54.9°F12.7°C 53.4°F11.9°C 95% Calm Calm -- 29.77 in1008.1 mb 0.00 in0.0 mm 0.00 in0.0 mm 0.00 in0.0 mm
08:24 AM 54.9°F12.7°C 53.4°F11.9°C 95% Calm Calm -- 29.77 in1008.1 mb 0.00 in0.0 mm 0.00 in0.0 mm 0.00 in0.0 mm
08:29 AM 54.9°F12.7°C 53.4°F11.9°C 95% Calm Calm -- 29.76 in1007.8 mb 0.00 in0.0 mm 0.00 in0.0 mm 0.00 in0.0 mm
08:34 AM 55.0°F12.8°C 53.6°F12.0°C 95% Calm Calm -- 29.76 in1007.8 mb 0.00 in0.0 mm 0.00 in0.0 mm 0.00 in0.0 mm
08:39 AM 55.0°F12.8°C 53.6°F12.0°C 95% Calm Calm -- 29.76 in1007.8 mb 0.00 in0.0 mm 0.00 in0.0 mm 0.00 in0.0 mm
08:44 AM 55.0°F12.8°C 53.6°F12.0°C 95% Calm Calm -- 29.75 in1007.5 mb 0.00 in0.0 mm 0.00 in0.0 mm 0.00 in0.0 mm
08:49 AM 55.0°F12.8°C 53.6°F12.0°C 95% Calm Calm -- 29.75 in1007.5 mb 0.00 in0.0 mm 0.00 in0.0 mm 0.00 in0.0 mm
08:54 AM 55.2°F12.9°C 53.8°F12.1°C 95% Calm Calm -- 29.75 in1007.5 mb 0.00 in0.0 mm 0.00 in0.0 mm 0.00 in0.0 mm
08:59 AM 55.2°F12.9°C 53.8°F12.1°C 95% Calm Calm -- 29.76 in1007.8 mb 0.00 in0.0 mm 0.00 in0.0 mm 0.00 in0.0 mm
09:04 AM 55.2°F12.9°C 53.8°F12.1°C 95% Calm Calm -- 29.75 in1007.5 mb 0.00 in0.0 mm 0.00 in0.0 mm 0.00 in0.0 mm
09:09 AM 55.2°F12.9°C 53.8°F12.1°C 95% 0.9 mph SSE1.4 kmh SSE 2.5 mph4.0 kmh 29.76 in1007.8 mb 0.00 in0.0 mm 0.00 in0.0 mm 0.00 in0.0 mm
09:15 AM 55.4°F13.0°C 54.0°F12.2°C 95% 1.8 mph SW2.9 kmh SW 2.5 mph4.0 kmh 29.76 in1007.8 mb 0.00 in0.0 mm 0.00 in0.0 mm 0.00 in0.0 mm
09:19 AM 55.4°F13.0°C 54.0°F12.2°C 95% 2.0 mph S3.2 kmh S 2.5 mph4.0 kmh 29.75 in1007.5 mb 0.00 in0.0 mm 0.00 in0.0 mm 0.00 in0.0 mm
09:24 AM 55.4°F13.0°C 54.0°F12.2°C 95% 0.4 mph SE0.6 kmh SE 2.5 mph4.0 kmh 29.75 in1007.5 mb 0.00 in0.0 mm 0.00 in0.0 mm 0.00 in0.0 mm
09:29 AM 55.4°F13.0°C 54.0°F12.2°C 95% Calm Calm -- 29.75 in1007.5 mb 0.00 in0.0 mm 0.00 in0.0 mm 0.00 in0.0 mm
09:34 AM 55.4°F13.0°C 54.0°F12.2°C 95% Calm Calm -- 29.75 in1007.5 mb 0.00 in0.0 mm 0.00 in0.0 mm 0.00 in0.0 mm
09:39 AM 55.6°F13.1°C 54.1°F12.3°C 95% Calm Calm -- 29.75 in1007.5 mb 0.00 in0.0 mm 0.00 in0.0 mm 0.00 in0.0 mm
09:44 AM 55.8°F13.2°C 54.3°F12.4°C 95% 2.0 mph SSE3.2 kmh SSE 2.5 mph4.0 kmh 29.75 in1007.5 mb 0.00 in0.0 mm 0.00 in0.0 mm 0.00 in0.0 mm
09:49 AM 55.8°F13.2°C 54.3°F12.4°C 95% 1.8 mph ENE2.9 kmh ENE 2.5 mph4.0 kmh 29.76 in1007.8 mb 0.00 in0.0 mm 0.00 in0.0 mm 0.00 in0.0 mm
09:54 AM 55.9°F13.3°C 54.5°F12.5°C 95% 2.0 mph SE3.2 kmh SE 4.9 mph7.9 kmh 29.76 in1007.8 mb 0.00 in0.0 mm 0.00 in0.0 mm 0.00 in0.0 mm
09:59 AM 55.9°F13.3°C 54.5°F12.5°C 95% 2.7 mph S4.3 kmh S 4.9 mph7.9 kmh 29.76 in1007.8 mb 0.01 in0.3 mm 0.12 in3.0 mm 0.01 in0.3 mm
10:04 AM 56.1°F13.4°C 54.7°F12.6°C 95% Calm Calm -- 29.76 in1007.8 mb 0.07 in1.8 mm 0.07 in1.8 mm 0.01 in0.3 mm
10:09 AM 56.1°F13.4°C 54.7°F12.6°C 95% 0.9 mph S1.4 kmh S 2.5 mph4.0 kmh 29.77 in1008.1 mb 0.00 in0.0 mm 0.00 in0.0 mm 0.01 in0.3 mm
10:14 AM 56.1°F13.4°C 54.7°F12.6°C 95% 1.1 mph SE1.8 kmh SE 2.5 mph4.0 kmh 29.76 in1007.8 mb 0.00 in0.0 mm 0.00 in0.0 mm 0.01 in0.3 mm
10:19 AM 56.1°F13.4°C 54.7°F12.6°C 95% 1.3 mph SE2.1 kmh SE 2.5 mph4.0 kmh 29.76 in1007.8 mb 0.00 in0.0 mm 0.00 in0.0 mm 0.01 in0.3 mm
10:24 AM 56.1°F13.4°C 54.7°F12.6°C 95% Calm Calm -- 29.76 in1007.8 mb 0.00 in0.0 mm 0.00 in0.0 mm 0.01 in0.3 mm
10:29 AM 56.1°F13.4°C 54.7°F12.6°C 95% 1.8 mph SW2.9 kmh SW 2.5 mph4.0 kmh 29.76 in1007.8 mb 0.00 in0.0 mm 0.00 in0.0 mm 0.01 in0.3 mm
10:34 AM 56.1°F13.4°C 54.7°F12.6°C 95% 0.4 mph E0.6 kmh E 2.5 mph4.0 kmh 29.76 in1007.8 mb 0.00 in0.0 mm 0.00 in0.0 mm 0.01 in0.3 mm
10:39 AM 56.3°F13.5°C 54.9°F12.7°C 95% 0.9 mph SSE1.4 kmh SSE 2.5 mph4.0 kmh 29.76 in1007.8 mb 0.00 in0.0 mm 0.00 in0.0 mm 0.01 in0.3 mm
10:44 AM 56.3°F13.5°C 54.9°F12.7°C 95% 2.9 mph S4.7 kmh S 4.9 mph7.9 kmh 29.76 in1007.8 mb 0.00 in0.0 mm 0.00 in0.0 mm 0.01 in0.3 mm
10:49 AM 56.3°F13.5°C 54.9°F12.7°C 95% 0.2 mph SE0.3 kmh SE 2.5 mph4.0 kmh 29.76 in1007.8 mb 0.00 in0.0 mm 0.00 in0.0 mm 0.01 in0.3 mm
10:54 AM 56.5°F13.6°C 55.0°F12.8°C 95% Calm Calm -- 29.76 in1007.8 mb 0.00 in0.0 mm 0.00 in0.0 mm 0.01 in0.3 mm
10:59 AM 56.5°F13.6°C 55.0°F12.8°C 95% 0.4 mph S0.6 kmh S 2.5 mph4.0 kmh 29.75 in1007.5 mb 0.00 in0.0 mm 0.00 in0.0 mm 0.01 in0.3 mm
11:04 AM 56.7°F13.7°C 55.2°F12.9°C 95% Calm Calm -- 29.76 in1007.8 mb 0.00 in0.0 mm 0.00 in0.0 mm 0.01 in0.3 mm
11:09 AM 56.7°F13.7°C 55.2°F12.9°C 95% 1.8 mph SE2.9 kmh SE 2.5 mph4.0 kmh 29.75 in1007.5 mb 0.00 in0.0 mm 0.00 in0.0 mm 0.01 in0.3 mm
11:14 AM 56.8°F13.8°C 55.4°F13.0°C 95% 1.1 mph SE1.8 kmh SE 2.5 mph4.0 kmh 29.75 in1007.5 mb 0.00 in0.0 mm 0.00 in0.0 mm 0.01 in0.3 mm
11:19 AM 56.8°F13.8°C 55.4°F13.0°C 95% 1.1 mph ESE1.8 kmh ESE 2.5 mph4.0 kmh 29.76 in1007.8 mb 0.00 in0.0 mm 0.00 in0.0 mm 0.01 in0.3 mm
11:24 AM 57.0°F13.9°C 55.6°F13.1°C 95% 1.1 mph SE1.8 kmh SE 2.5 mph4.0 kmh 29.75 in1007.5 mb 0.01 in0.3 mm 0.12 in3.0 mm 0.02 in0.5 mm
11:29 AM 57.0°F13.9°C 55.6°F13.1°C 95% 0.4 mph E0.6 kmh E 2.5 mph4.0 kmh 29.75 in1007.5 mb 0.01 in0.3 mm 0.00 in0.0 mm 0.02 in0.5 mm
11:34 AM 57.2°F14.0°C 55.8°F13.2°C 95% Calm Calm -- 29.75 in1007.5 mb 0.01 in0.3 mm 0.00 in0.0 mm 0.02 in0.5 mm
11:39 AM 57.2°F14.0°C 55.8°F13.2°C 95% 1.3 mph S2.1 kmh S 2.5 mph4.0 kmh 29.76 in1007.8 mb 0.01 in0.3 mm 0.00 in0.0 mm 0.02 in0.5 mm
11:44 AM 57.2°F14.0°C 55.8°F13.2°C 95% 0.2 mph SE0.3 kmh SE 2.5 mph4.0 kmh 29.76 in1007.8 mb 0.01 in0.3 mm 0.00 in0.0 mm 0.02 in0.5 mm
11:49 AM 57.4°F14.1°C 55.9°F13.3°C 95% 0.4 mph ESE0.6 kmh ESE 2.5 mph4.0 kmh 29.76 in1007.8 mb 0.01 in0.3 mm 0.00 in0.0 mm 0.02 in0.5 mm
11:54 AM 57.4°F14.1°C 55.9°F13.3°C 95% Calm Calm -- 29.76 in1007.8 mb 0.01 in0.3 mm 0.00 in0.0 mm 0.02 in0.5 mm
11:59 AM 57.6°F14.2°C 56.1°F13.4°C 95% Calm Calm -- 29.76 in1007.8 mb 0.01 in0.3 mm 0.00 in0.0 mm 0.02 in0.5 mm
12:04 PM 57.7°F14.3°C 56.3°F13.5°C 95% Calm Calm -- 29.75 in1007.5 mb 0.00 in0.0 mm 0.00 in0.0 mm 0.02 in0.5 mm
12:09 PM 57.9°F14.4°C 56.5°F13.6°C 95% Calm Calm -- 29.75 in1007.5 mb 0.00 in0.0 mm 0.00 in0.0 mm 0.02 in0.5 mm
12:14 PM 57.9°F14.4°C 56.5°F13.6°C 95% Calm Calm -- 29.75 in1007.5 mb 0.00 in0.0 mm 0.00 in0.0 mm 0.02 in0.5 mm
12:19 PM 57.9°F14.4°C 56.5°F13.6°C 95% 0.9 mph SSW1.4 kmh SSW 2.5 mph4.0 kmh 29.75 in1007.5 mb 0.00 in0.0 mm 0.00 in0.0 mm 0.02 in0.5 mm
12:24 PM 58.1°F14.5°C 56.7°F13.7°C 95% Calm Calm -- 29.75 in1007.5 mb 0.00 in0.0 mm 0.00 in0.0 mm 0.02 in0.5 mm
12:29 PM 58.1°F14.5°C 56.7°F13.7°C 95% Calm Calm -- 29.74 in1007.1 mb 0.00 in0.0 mm 0.00 in0.0 mm 0.02 in0.5 mm
12:34 PM 58.1°F14.5°C 56.7°F13.7°C 95% 0.4 mph SE0.6 kmh SE 2.5 mph4.0 kmh 29.74 in1007.1 mb 0.00 in0.0 mm 0.00 in0.0 mm 0.02 in0.5 mm
12:39 PM 58.1°F14.5°C 56.7°F13.7°C 95% Calm Calm -- 29.73 in1006.8 mb 0.00 in0.0 mm 0.00 in0.0 mm 0.02 in0.5 mm
12:44 PM 58.3°F14.6°C 56.8°F13.8°C 95% 0.9 mph ESE1.4 kmh ESE 2.5 mph4.0 kmh 29.73 in1006.8 mb 0.02 in0.5 mm 0.24 in6.1 mm 0.04 in1.0 mm
12:49 PM 58.3°F14.6°C 56.8°F13.8°C 95% Calm Calm -- 29.72 in1006.4 mb 0.02 in0.5 mm 0.00 in0.0 mm 0.04 in1.0 mm
12:54 PM 58.5°F14.7°C 57.0°F13.9°C 95% Calm Calm -- 29.72 in1006.4 mb 0.02 in0.5 mm 0.00 in0.0 mm 0.04 in1.0 mm
12:59 PM 58.6°F14.8°C 57.2°F14.0°C 95% Calm Calm -- 29.72 in1006.4 mb 0.02 in0.5 mm 0.00 in0.0 mm 0.04 in1.0 mm
01:04 PM 58.6°F14.8°C 57.2°F14.0°C 95% 1.8 mph WSW2.9 kmh WSW 2.5 mph4.0 kmh 29.71 in1006.1 mb 0.00 in0.0 mm 0.00 in0.0 mm 0.04 in1.0 mm
01:09 PM 58.6°F14.8°C 57.2°F14.0°C 95% 1.8 mph S2.9 kmh S 2.5 mph4.0 kmh 29.71 in1006.1 mb 0.00 in0.0 mm 0.00 in0.0 mm 0.04 in1.0 mm
01:14 PM 58.8°F14.9°C 57.4°F14.1°C 95% 0.4 mph S0.6 kmh S 2.5 mph4.0 kmh 29.70 in1005.8 mb 0.00 in0.0 mm 0.00 in0.0 mm 0.04 in1.0 mm
01:19 PM 58.8°F14.9°C 57.4°F14.1°C 95% 2.0 mph S3.2 kmh S 2.5 mph4.0 kmh 29.70 in1005.8 mb 0.00 in0.0 mm 0.00 in0.0 mm 0.04 in1.0 mm
01:24 PM 58.8°F14.9°C 57.4°F14.1°C 95% 1.1 mph ENE1.8 kmh ENE 2.5 mph4.0 kmh 29.69 in1005.4 mb 0.00 in0.0 mm 0.00 in0.0 mm 0.04 in1.0 mm
01:29 PM 58.8°F14.9°C 57.4°F14.1°C 95% 2.9 mph SE4.7 kmh SE 4.9 mph7.9 kmh 29.68 in1005.1 mb 0.00 in0.0 mm 0.00 in0.0 mm 0.04 in1.0 mm
01:34 PM 58.8°F14.9°C 57.4°F14.1°C 95% 0.4 mph E0.6 kmh E 2.5 mph4.0 kmh 29.68 in1005.1 mb 0.00 in0.0 mm 0.00 in0.0 mm 0.04 in1.0 mm
01:39 PM 59.0°F15.0°C 57.6°F14.2°C 95% 2.5 mph SSE4.0 kmh SSE 2.5 mph4.0 kmh 29.67 in1004.7 mb 0.00 in0.0 mm 0.00 in0.0 mm 0.04 in1.0 mm
01:44 PM 59.0°F15.0°C 57.6°F14.2°C 95% Calm Calm -- 29.67 in1004.7 mb 0.00 in0.0 mm 0.00 in0.0 mm 0.04 in1.0 mm
01:49 PM 59.0°F15.0°C 57.6°F14.2°C 95% 0.9 mph ESE1.4 kmh ESE 2.5 mph4.0 kmh 29.66 in1004.4 mb 0.00 in0.0 mm 0.00 in0.0 mm 0.04 in1.0 mm
01:54 PM 59.2°F15.1°C 57.7°F14.3°C 95% 1.1 mph ESE1.8 kmh ESE 2.5 mph4.0 kmh 29.65 in1004.1 mb 0.00 in0.0 mm 0.00 in0.0 mm 0.04 in1.0 mm
01:59 PM 59.2°F15.1°C 57.7°F14.3°C 95% 2.7 mph S4.3 kmh S 4.9 mph7.9 kmh 29.65 in1004.1 mb 0.00 in0.0 mm 0.00 in0.0 mm 0.04 in1.0 mm
02:04 PM 59.4°F15.2°C 57.9°F14.4°C 95% 2.7 mph SSE4.3 kmh SSE 4.9 mph7.9 kmh 29.64 in1003.7 mb 0.00 in0.0 mm 0.00 in0.0 mm 0.04 in1.0 mm
02:09 PM 59.4°F15.2°C 57.9°F14.4°C 95% 1.8 mph S2.9 kmh S 2.5 mph4.0 kmh 29.64 in1003.7 mb 0.00 in0.0 mm 0.00 in0.0 mm 0.04 in1.0 mm
02:14 PM 59.5°F15.3°C 58.1°F14.5°C 95% 0.9 mph SE1.4 kmh SE 2.5 mph4.0 kmh 29.64 in1003.7 mb 0.00 in0.0 mm 0.00 in0.0 mm 0.04 in1.0 mm
02:19 PM 59.7°F15.4°C 58.3°F14.6°C 95% 2.0 mph SSE3.2 kmh SSE 2.5 mph4.0 kmh 29.62 in1003.0 mb 0.00 in0.0 mm 0.00 in0.0 mm 0.04 in1.0 mm
02:24 PM 59.9°F15.5°C 58.5°F14.7°C 95% 0.4 mph ESE0.6 kmh ESE 2.5 mph4.0 kmh 29.63 in1003.4 mb 0.00 in0.0 mm 0.00 in0.0 mm 0.04 in1.0 mm
02:29 PM 59.9°F15.5°C 58.5°F14.7°C 95% 2.7 mph SE4.3 kmh SE 4.9 mph7.9 kmh 29.62 in1003.0 mb 0.00 in0.0 mm 0.00 in0.0 mm 0.04 in1.0 mm
02:34 PM 60.1°F15.6°C 58.6°F14.8°C 95% 0.9 mph ESE1.4 kmh ESE 2.5 mph4.0 kmh 29.62 in1003.0 mb 0.00 in0.0 mm 0.00 in0.0 mm 0.04 in1.0 mm
02:39 PM 60.3°F15.7°C 58.8°F14.9°C 95% 2.9 mph S4.7 kmh S 4.9 mph7.9 kmh 29.61 in1002.7 mb 0.00 in0.0 mm 0.00 in0.0 mm 0.04 in1.0 mm
02:44 PM 60.4°F15.8°C 59.0°F15.0°C 95% 0.4 mph SE0.6 kmh SE 2.5 mph4.0 kmh 29.61 in1002.7 mb 0.00 in0.0 mm 0.00 in0.0 mm 0.04 in1.0 mm
02:49 PM 60.6°F15.9°C 59.2°F15.1°C 95% 4.5 mph SSE7.2 kmh SSE 7.4 mph11.9 kmh 29.60 in1002.4 mb 0.00 in0.0 mm 0.00 in0.0 mm 0.04 in1.0 mm
02:54 PM 60.6°F15.9°C 59.2°F15.1°C 95% 2.7 mph SSE4.3 kmh SSE 4.9 mph7.9 kmh 29.60 in1002.4 mb 0.00 in0.0 mm 0.00 in0.0 mm 0.04 in1.0 mm
02:59 PM 60.6°F15.9°C 59.2°F15.1°C 95% 4.0 mph SSE6.4 kmh SSE 4.9 mph7.9 kmh 29.60 in1002.4 mb 0.00 in0.0 mm 0.00 in0.0 mm 0.04 in1.0 mm
03:04 PM 60.8°F16.0°C 59.4°F15.2°C 95% 4.3 mph S6.9 kmh S 4.9 mph7.9 kmh 29.60 in1002.4 mb 0.00 in0.0 mm 0.00 in0.0 mm 0.04 in1.0 mm
03:09 PM 60.8°F16.0°C 59.4°F15.2°C 95% 2.9 mph SE4.7 kmh SE 4.9 mph7.9 kmh 29.59 in1002.0 mb 0.00 in0.0 mm 0.00 in0.0 mm 0.04 in1.0 mm
03:14 PM 60.8°F16.0°C 59.4°F15.2°C 95% 1.3 mph SE2.1 kmh SE 2.5 mph4.0 kmh 29.59 in1002.0 mb 0.00 in0.0 mm 0.00 in0.0 mm 0.04 in1.0 mm
03:19 PM 60.8°F16.0°C 59.4°F15.2°C 95% 1.1 mph E1.8 kmh E 2.5 mph4.0 kmh 29.59 in1002.0 mb 0.00 in0.0 mm 0.00 in0.0 mm 0.04 in1.0 mm
03:24 PM 60.8°F16.0°C 59.4°F15.2°C 95% 1.8 mph SE2.9 kmh SE 2.5 mph4.0 kmh 29.59 in1002.0 mb 0.00 in0.0 mm 0.00 in0.0 mm 0.04 in1.0 mm
03:29 PM 60.8°F16.0°C 59.4°F15.2°C 95% 0.4 mph ESE0.6 kmh ESE 2.5 mph4.0 kmh 29.59 in1002.0 mb 0.00 in0.0 mm 0.00 in0.0 mm 0.04 in1.0 mm
03:34 PM 61.0°F16.1°C 59.5°F15.3°C 95% 2.5 mph WSW4.0 kmh WSW 2.5 mph4.0 kmh 29.59 in1002.0 mb 0.00 in0.0 mm 0.00 in0.0 mm 0.04 in1.0 mm
03:39 PM 61.2°F16.2°C 59.7°F15.4°C 95% 1.1 mph SSE1.8 kmh SSE 2.5 mph4.0 kmh 29.59 in1002.0 mb 0.00 in0.0 mm 0.00 in0.0 mm 0.04 in1.0 mm
03:44 PM 61.2°F16.2°C 59.7°F15.4°C 95% 4.0 mph SSE6.4 kmh SSE 4.9 mph7.9 kmh 29.59 in1002.0 mb 0.00 in0.0 mm 0.00 in0.0 mm 0.04 in1.0 mm
03:49 PM 61.3°F16.3°C 59.9°F15.5°C 95% 4.9 mph SW7.9 kmh SW 7.4 mph11.9 kmh 29.58 in1001.7 mb 0.00 in0.0 mm 0.00 in0.0 mm 0.04 in1.0 mm
03:54 PM 61.5°F16.4°C 60.1°F15.6°C 95% Calm Calm -- 29.58 in1001.7 mb 0.00 in0.0 mm 0.00 in0.0 mm 0.04 in1.0 mm
03:59 PM 61.5°F16.4°C 60.1°F15.6°C 95% 3.4 mph SSW5.5 kmh SSW 4.9 mph7.9 kmh 29.58 in1001.7 mb 0.00 in0.0 mm 0.00 in0.0 mm 0.04 in1.0 mm
04:04 PM 61.5°F16.4°C 60.1°F15.6°C 95% 7.2 mph S11.6 kmh S 9.8 mph15.8 kmh 29.58 in1001.7 mb 0.00 in0.0 mm 0.00 in0.0 mm 0.04 in1.0 mm
04:09 PM 61.7°F16.5°C 60.3°F15.7°C 95% 1.8 mph SE2.9 kmh SE 2.5 mph4.0 kmh 29.57 in1001.4 mb 0.00 in0.0 mm 0.00 in0.0 mm 0.04 in1.0 mm
04:14 PM 61.7°F16.5°C 60.3°F15.7°C 95% Calm Calm -- 29.58 in1001.7 mb 0.00 in0.0 mm 0.00 in0.0 mm 0.04 in1.0 mm
04:19 PM 61.7°F16.5°C 60.3°F15.7°C 95% 3.6 mph SSE5.8 kmh SSE 4.9 mph7.9 kmh 29.58 in1001.7 mb 0.00 in0.0 mm 0.00 in0.0 mm 0.04 in1.0 mm
04:24 PM 61.9°F16.6°C 60.4°F15.8°C 95% 3.4 mph SW5.5 kmh SW 4.9 mph7.9 kmh 29.58 in1001.7 mb 0.00 in0.0 mm 0.00 in0.0 mm 0.04 in1.0 mm
04:29 PM 61.9°F16.6°C 60.4°F15.8°C 95% 2.7 mph SW4.3 kmh SW 4.9 mph7.9 kmh 29.58 in1001.7 mb 0.00 in0.0 mm 0.00 in0.0 mm 0.04 in1.0 mm
04:34 PM 61.9°F16.6°C 60.4°F15.8°C 95% Calm Calm -- 29.58 in1001.7 mb 0.00 in0.0 mm 0.00 in0.0 mm 0.04 in1.0 mm
04:39 PM 61.9°F16.6°C 60.4°F15.8°C 95% Calm Calm -- 29.57 in1001.4 mb 0.00 in0.0 mm 0.00 in0.0 mm 0.04 in1.0 mm
04:44 PM 61.9°F16.6°C 60.4°F15.8°C 95% 0.2 mph ESE0.3 kmh ESE 2.5 mph4.0 kmh 29.57 in1001.4 mb 0.00 in0.0 mm 0.00 in0.0 mm 0.04 in1.0 mm
04:49 PM 61.9°F16.6°C 60.4°F15.8°C 95% 1.1 mph SSE1.8 kmh SSE 2.5 mph4.0 kmh 29.57 in1001.4 mb 0.00 in0.0 mm 0.00 in0.0 mm 0.04 in1.0 mm
04:54 PM 61.9°F16.6°C 60.4°F15.8°C 95% Calm Calm -- 29.57 in1001.4 mb 0.00 in0.0 mm 0.00 in0.0 mm 0.04 in1.0 mm
04:59 PM 61.9°F16.6°C 60.4°F15.8°C 95% 2.5 mph SW4.0 kmh SW 4.9 mph7.9 kmh 29.56 in1001.0 mb 0.00 in0.0 mm 0.00 in0.0 mm 0.04 in1.0 mm
05:04 PM 61.9°F16.6°C 60.4°F15.8°C 95% 0.9 mph SE1.4 kmh SE 2.5 mph4.0 kmh 29.56 in1001.0 mb 0.00 in0.0 mm 0.00 in0.0 mm 0.04 in1.0 mm
05:09 PM 61.9°F16.6°C 60.4°F15.8°C 95% 1.3 mph SSE2.1 kmh SSE 2.5 mph4.0 kmh 29.56 in1001.0 mb 0.00 in0.0 mm 0.00 in0.0 mm 0.04 in1.0 mm
05:14 PM 61.9°F16.6°C 60.4°F15.8°C 95% 1.1 mph SSW1.8 kmh SSW 2.5 mph4.0 kmh 29.56 in1001.0 mb 0.00 in0.0 mm 0.00 in0.0 mm 0.04 in1.0 mm
05:19 PM 61.9°F16.6°C 60.4°F15.8°C 95% Calm Calm -- 29.56 in1001.0 mb 0.00 in0.0 mm 0.00 in0.0 mm 0.04 in1.0 mm
05:24 PM 61.9°F16.6°C 60.4°F15.8°C 95% 2.7 mph SW4.3 kmh SW 4.9 mph7.9 kmh 29.56 in1001.0 mb 0.00 in0.0 mm 0.00 in0.0 mm 0.04 in1.0 mm
05:29 PM 61.9°F16.6°C 60.4°F15.8°C 95% 0.4 mph SSE0.6 kmh SSE 2.5 mph4.0 kmh 29.55 in1000.7 mb 0.00 in0.0 mm 0.00 in0.0 mm 0.04 in1.0 mm
05:34 PM 61.9°F16.6°C 60.4°F15.8°C 95% 0.2 mph ESE0.3 kmh ESE 2.5 mph4.0 kmh 29.55 in1000.7 mb 0.00 in0.0 mm 0.00 in0.0 mm 0.04 in1.0 mm
05:39 PM 61.9°F16.6°C 60.4°F15.8°C 95% Calm Calm -- 29.54 in1000.3 mb 0.00 in0.0 mm 0.00 in0.0 mm 0.04 in1.0 mm
05:44 PM 61.7°F16.5°C 60.3°F15.7°C 95% Calm Calm -- 29.54 in1000.3 mb 0.00 in0.0 mm 0.00 in0.0 mm 0.04 in1.0 mm
05:49 PM 61.7°F16.5°C 60.3°F15.7°C 95% Calm Calm -- 29.54 in1000.3 mb 0.00 in0.0 mm 0.00 in0.0 mm 0.04 in1.0 mm
05:54 PM 61.7°F16.5°C 60.3°F15.7°C 95% 0.2 mph E0.3 kmh E 2.5 mph4.0 kmh 29.53 in1000.0 mb 0.00 in0.0 mm 0.00 in0.0 mm 0.04 in1.0 mm
05:59 PM 61.7°F16.5°C 60.3°F15.7°C 95% 4.0 mph S6.4 kmh S 7.4 mph11.9 kmh 29.52 in999.7 mb 0.00 in0.0 mm 0.00 in0.0 mm 0.04 in1.0 mm
06:04 PM 61.7°F16.5°C 60.3°F15.7°C 95% 1.3 mph ESE2.1 kmh ESE 2.5 mph4.0 kmh 29.52 in999.7 mb 0.00 in0.0 mm 0.00 in0.0 mm 0.04 in1.0 mm
06:09 PM 61.7°F16.5°C 60.3°F15.7°C 95% 2.0 mph SSE3.2 kmh SSE 2.5 mph4.0 kmh 29.52 in999.7 mb 0.00 in0.0 mm 0.00 in0.0 mm 0.04 in1.0 mm
06:14 PM 61.7°F16.5°C 60.3°F15.7°C 95% 0.9 mph WSW1.4 kmh WSW 2.5 mph4.0 kmh 29.52 in999.7 mb 0.00 in0.0 mm 0.00 in0.0 mm 0.04 in1.0 mm
06:19 PM 61.7°F16.5°C 60.3°F15.7°C 95% 2.5 mph ESE4.0 kmh ESE 4.9 mph7.9 kmh 29.52 in999.7 mb 0.00 in0.0 mm 0.00 in0.0 mm 0.04 in1.0 mm
06:24 PM 61.9°F16.6°C 60.4°F15.8°C 95% 1.1 mph S1.8 kmh S 2.5 mph4.0 kmh 29.52 in999.7 mb 0.00 in0.0 mm 0.00 in0.0 mm 0.04 in1.0 mm
06:29 PM 61.9°F16.6°C 60.4°F15.8°C 95% 4.9 mph SW7.9 kmh SW 4.9 mph7.9 kmh 29.52 in999.7 mb 0.00 in0.0 mm 0.00 in0.0 mm 0.04 in1.0 mm
06:34 PM 61.9°F16.6°C 60.4°F15.8°C 95% 0.9 mph E1.4 kmh E 2.5 mph4.0 kmh 29.51 in999.3 mb 0.00 in0.0 mm 0.00 in0.0 mm 0.04 in1.0 mm
06:39 PM 61.9°F16.6°C 60.4°F15.8°C 95% 2.0 mph SSW3.2 kmh SSW 2.5 mph4.0 kmh 29.51 in999.3 mb 0.00 in0.0 mm 0.00 in0.0 mm 0.04 in1.0 mm
06:44 PM 61.9°F16.6°C 60.4°F15.8°C 95% Calm Calm -- 29.51 in999.3 mb 0.00 in0.0 mm 0.00 in0.0 mm 0.04 in1.0 mm
06:49 PM 61.9°F16.6°C 60.4°F15.8°C 95% 3.6 mph SW5.8 kmh SW 4.9 mph7.9 kmh 29.51 in999.3 mb 0.00 in0.0 mm 0.00 in0.0 mm 0.04 in1.0 mm
06:54 PM 61.9°F16.6°C 60.4°F15.8°C 95% 0.9 mph ESE1.4 kmh ESE 2.5 mph4.0 kmh 29.52 in999.7 mb 0.00 in0.0 mm 0.00 in0.0 mm 0.04 in1.0 mm
06:59 PM 61.7°F16.5°C 60.3°F15.7°C 95% Calm Calm -- 29.52 in999.7 mb 0.00 in0.0 mm 0.00 in0.0 mm 0.04 in1.0 mm
07:04 PM 61.7°F16.5°C 60.3°F15.7°C 95% 1.8 mph SSE2.9 kmh SSE 2.5 mph4.0 kmh 29.52 in999.7 mb 0.00 in0.0 mm 0.00 in0.0 mm 0.04 in1.0 mm
07:09 PM 61.7°F16.5°C 60.3°F15.7°C 95% Calm Calm -- 29.52 in999.7 mb 0.00 in0.0 mm 0.00 in0.0 mm 0.04 in1.0 mm
07:14 PM 61.7°F16.5°C 60.3°F15.7°C 95% Calm Calm -- 29.52 in999.7 mb 0.00 in0.0 mm 0.00 in0.0 mm 0.04 in1.0 mm
07:19 PM 61.7°F16.5°C 60.3°F15.7°C 95% 1.8 mph SSW2.9 kmh SSW 2.5 mph4.0 kmh 29.51 in999.3 mb 0.00 in0.0 mm 0.00 in0.0 mm 0.04 in1.0 mm
07:24 PM 61.7°F16.5°C 60.3°F15.7°C 95% 2.0 mph S3.2 kmh S 4.9 mph7.9 kmh 29.51 in999.3 mb 0.00 in0.0 mm 0.00 in0.0 mm 0.04 in1.0 mm
07:29 PM 61.7°F16.5°C 60.3°F15.7°C 95% 2.9 mph S4.7 kmh S 4.9 mph7.9 kmh 29.51 in999.3 mb 0.00 in0.0 mm 0.00 in0.0 mm 0.04 in1.0 mm
07:34 PM 61.7°F16.5°C 60.3°F15.7°C 95% 1.8 mph SE2.9 kmh SE 2.5 mph4.0 kmh 29.52 in999.7 mb 0.00 in0.0 mm 0.00 in0.0 mm 0.04 in1.0 mm
07:39 PM 61.7°F16.5°C 60.3°F15.7°C 95% Calm Calm -- 29.52 in999.7 mb 0.00 in0.0 mm 0.00 in0.0 mm 0.04 in1.0 mm
07:44 PM 61.7°F16.5°C 60.3°F15.7°C 95% 1.3 mph WSW2.1 kmh WSW 2.5 mph4.0 kmh 29.52 in999.7 mb 0.00 in0.0 mm 0.00 in0.0 mm 0.04 in1.0 mm
07:49 PM 61.7°F16.5°C 60.3°F15.7°C 95% 0.9 mph SE1.4 kmh SE 2.5 mph4.0 kmh 29.52 in999.7 mb 0.00 in0.0 mm 0.00 in0.0 mm 0.04 in1.0 mm
07:54 PM 61.7°F16.5°C 60.3°F15.7°C 95% 0.2 mph SE0.3 kmh SE 2.5 mph4.0 kmh 29.52 in999.7 mb 0.00 in0.0 mm 0.00 in0.0 mm 0.04 in1.0 mm
07:59 PM 61.7°F16.5°C 60.3°F15.7°C 95% Calm Calm -- 29.52 in999.7 mb 0.00 in0.0 mm 0.00 in0.0 mm 0.04 in1.0 mm
08:04 PM 61.7°F16.5°C 60.3°F15.7°C 95% Calm Calm -- 29.52 in999.7 mb 0.00 in0.0 mm 0.00 in0.0 mm 0.04 in1.0 mm
08:09 PM 61.7°F16.5°C 60.3°F15.7°C 95% Calm Calm -- 29.52 in999.7 mb 0.00 in0.0 mm 0.00 in0.0 mm 0.04 in1.0 mm
08:14 PM 61.7°F16.5°C 60.3°F15.7°C 95% Calm Calm -- 29.51 in999.3 mb 0.00 in0.0 mm 0.00 in0.0 mm 0.04 in1.0 mm
08:19 PM 61.7°F16.5°C 60.3°F15.7°C 95% Calm Calm -- 29.51 in999.3 mb 0.00 in0.0 mm 0.00 in0.0 mm 0.04 in1.0 mm
08:24 PM 61.7°F16.5°C 60.3°F15.7°C 95% Calm Calm -- 29.52 in999.7 mb 0.00 in0.0 mm 0.00 in0.0 mm 0.04 in1.0 mm
08:29 PM 61.7°F16.5°C 60.3°F15.7°C 95% Calm Calm -- 29.52 in999.7 mb 0.00 in0.0 mm 0.00 in0.0 mm 0.04 in1.0 mm
08:34 PM 61.7°F16.5°C 60.3°F15.7°C 95% 1.1 mph SE1.8 kmh SE 2.5 mph4.0 kmh 29.51 in999.3 mb 0.00 in0.0 mm 0.00 in0.0 mm 0.04 in1.0 mm
08:39 PM 61.5°F16.4°C 60.1°F15.6°C 95% Calm Calm -- 29.51 in999.3 mb 0.00 in0.0 mm 0.00 in0.0 mm 0.04 in1.0 mm
08:44 PM 61.5°F16.4°C 60.1°F15.6°C 95% Calm Calm -- 29.52 in999.7 mb 0.00 in0.0 mm 0.00 in0.0 mm 0.04 in1.0 mm
08:49 PM 61.5°F16.4°C 60.1°F15.6°C 95% Calm Calm -- 29.52 in999.7 mb 0.00 in0.0 mm 0.00 in0.0 mm 0.04 in1.0 mm
08:54 PM 61.5°F16.4°C 60.1°F15.6°C 95% Calm Calm -- 29.52 in999.7 mb 0.00 in0.0 mm 0.00 in0.0 mm 0.04 in1.0 mm
08:59 PM 61.5°F16.4°C 60.1°F15.6°C 95% Calm Calm -- 29.53 in1000.0 mb 0.00 in0.0 mm 0.00 in0.0 mm 0.04 in1.0 mm
09:04 PM 61.5°F16.4°C 60.1°F15.6°C 95% Calm Calm -- 29.53 in1000.0 mb 0.00 in0.0 mm 0.00 in0.0 mm 0.04 in1.0 mm
09:09 PM 61.5°F16.4°C 60.1°F15.6°C 95% Calm Calm -- 29.54 in1000.3 mb 0.00 in0.0 mm 0.00 in0.0 mm 0.04 in1.0 mm
09:14 PM 61.5°F16.4°C 60.1°F15.6°C 95% Calm Calm -- 29.54 in1000.3 mb 0.00 in0.0 mm 0.00 in0.0 mm 0.04 in1.0 mm
09:19 PM 61.5°F16.4°C 60.1°F15.6°C 95% Calm Calm -- 29.53 in1000.0 mb 0.00 in0.0 mm 0.00 in0.0 mm 0.04 in1.0 mm
09:24 PM 61.3°F16.3°C 59.9°F15.5°C 95% Calm Calm -- 29.53 in1000.0 mb 0.00 in0.0 mm 0.00 in0.0 mm 0.04 in1.0 mm
09:29 PM 61.3°F16.3°C 59.9°F15.5°C 95% Calm Calm -- 29.54 in1000.3 mb 0.00 in0.0 mm 0.00 in0.0 mm 0.04 in1.0 mm
09:34 PM 61.3°F16.3°C 59.9°F15.5°C 95% Calm Calm -- 29.53 in1000.0 mb 0.00 in0.0 mm 0.00 in0.0 mm 0.04 in1.0 mm
09:39 PM 61.3°F16.3°C 59.9°F15.5°C 95% Calm Calm -- 29.53 in1000.0 mb 0.00 in0.0 mm 0.00 in0.0 mm 0.04 in1.0 mm
09:44 PM 61.2°F16.2°C 59.7°F15.4°C 95% Calm Calm -- 29.54 in1000.3 mb 0.00 in0.0 mm 0.00 in0.0 mm 0.04 in1.0 mm
09:49 PM 61.2°F16.2°C 59.7°F15.4°C 95% Calm Calm -- 29.54 in1000.3 mb 0.00 in0.0 mm 0.00 in0.0 mm 0.04 in1.0 mm
09:54 PM 61.0°F16.1°C 59.5°F15.3°C 95% Calm Calm -- 29.54 in1000.3 mb 0.00 in0.0 mm 0.00 in0.0 mm 0.04 in1.0 mm
09:59 PM 61.0°F16.1°C 59.5°F15.3°C 95% Calm Calm -- 29.54 in1000.3 mb 0.00 in0.0 mm 0.00 in0.0 mm 0.04 in1.0 mm
10:04 PM 60.8°F16.0°C 59.4°F15.2°C 95% Calm Calm -- 29.55 in1000.7 mb 0.00 in0.0 mm 0.00 in0.0 mm 0.04 in1.0 mm
10:09 PM 60.6°F15.9°C 59.2°F15.1°C 95% Calm Calm -- 29.55 in1000.7 mb 0.00 in0.0 mm 0.00 in0.0 mm 0.04 in1.0 mm
10:14 PM 60.6°F15.9°C 59.2°F15.1°C 95% Calm Calm -- 29.55 in1000.7 mb 0.00 in0.0 mm 0.00 in0.0 mm 0.04 in1.0 mm
10:19 PM 60.4°F15.8°C 59.0°F15.0°C 95% Calm Calm -- 29.55 in1000.7 mb 0.00 in0.0 mm 0.00 in0.0 mm 0.04 in1.0 mm
10:24 PM 60.4°F15.8°C 59.0°F15.0°C 95% Calm Calm -- 29.55 in1000.7 mb 0.00 in0.0 mm 0.00 in0.0 mm 0.04 in1.0 mm
10:29 PM 60.3°F15.7°C 58.8°F14.9°C 95% Calm Calm -- 29.55 in1000.7 mb 0.00 in0.0 mm 0.00 in0.0 mm 0.04 in1.0 mm
10:34 PM 60.1°F15.6°C 58.6°F14.8°C 95% Calm Calm -- 29.55 in1000.7 mb 0.00 in0.0 mm 0.00 in0.0 mm 0.04 in1.0 mm
10:39 PM 59.9°F15.5°C 58.5°F14.7°C 95% Calm Calm -- 29.54 in1000.3 mb 0.00 in0.0 mm 0.00 in0.0 mm 0.04 in1.0 mm
10:44 PM 59.9°F15.5°C 58.5°F14.7°C 95% Calm Calm -- 29.55 in1000.7 mb 0.00 in0.0 mm 0.00 in0.0 mm 0.04 in1.0 mm
10:49 PM 59.5°F15.3°C 58.1°F14.5°C 95% Calm Calm -- 29.54 in1000.3 mb 0.00 in0.0 mm 0.00 in0.0 mm 0.04 in1.0 mm
10:54 PM 59.4°F15.2°C 57.9°F14.4°C 95% Calm Calm -- 29.55 in1000.7 mb 0.00 in0.0 mm 0.00 in0.0 mm 0.04 in1.0 mm
10:59 PM 59.2°F15.1°C 57.7°F14.3°C 95% Calm Calm -- 29.55 in1000.7 mb 0.00 in0.0 mm 0.00 in0.0 mm 0.04 in1.0 mm
11:04 PM 59.0°F15.0°C 57.6°F14.2°C 95% Calm Calm -- 29.56 in1001.0 mb 0.00 in0.0 mm 0.00 in0.0 mm 0.04 in1.0 mm
11:09 PM 58.8°F14.9°C 57.4°F14.1°C 95% Calm Calm -- 29.55 in1000.7 mb 0.00 in0.0 mm 0.00 in0.0 mm 0.04 in1.0 mm
11:14 PM 58.8°F14.9°C 57.4°F14.1°C 95% Calm Calm -- 29.56 in1001.0 mb 0.00 in0.0 mm 0.00 in0.0 mm 0.04 in1.0 mm
11:19 PM 59.0°F15.0°C 57.6°F14.2°C 95% Calm Calm -- 29.56 in1001.0 mb 0.00 in0.0 mm 0.00 in0.0 mm 0.04 in1.0 mm
11:24 PM 59.2°F15.1°C 57.7°F14.3°C 95% Calm Calm -- 29.56 in1001.0 mb 0.00 in0.0 mm 0.00 in0.0 mm 0.04 in1.0 mm
11:29 PM 59.2°F15.1°C 57.7°F14.3°C 95% Calm Calm -- 29.55 in1000.7 mb 0.00 in0.0 mm 0.00 in0.0 mm 0.04 in1.0 mm
11:34 PM 59.2°F15.1°C 57.7°F14.3°C 95% Calm Calm -- 29.56 in1001.0 mb 0.00 in0.0 mm 0.00 in0.0 mm 0.04 in1.0 mm
11:39 PM 59.2°F15.1°C 57.7°F14.3°C 95% Calm Calm -- 29.57 in1001.4 mb 0.00 in0.0 mm 0.00 in0.0 mm 0.04 in1.0 mm
11:44 PM 59.0°F15.0°C 57.6°F14.2°C 95% Calm Calm -- 29.56 in1001.0 mb 0.00 in0.0 mm 0.00 in0.0 mm 0.04 in1.0 mm
11:49 PM 58.8°F14.9°C 57.4°F14.1°C 95% Calm Calm -- 29.56 in1001.0 mb 0.00 in0.0 mm 0.00 in0.0 mm 0.04 in1.0 mm
11:54 PM 58.6°F14.8°C 57.2°F14.0°C 95% Calm Calm -- 29.56 in1001.0 mb 0.00 in0.0 mm 0.00 in0.0 mm 0.04 in1.0 mm
11:59 PM 58.5°F14.7°C 57.0°F13.9°C 95% Calm Calm -- 29.57 in1001.4 mb 0.00 in0.0 mm 0.00 in0.0 mm 0.04 in1.0 mm